sensor_id;sensor_type;location;lat;lon;timestamp;temperature;humidity
4896;DHT22;2463;49.948;8.472;2023-08-07T00:01:53;14.70;99.90
4896;DHT22;2463;49.948;8.472;2023-08-07T00:04:21;14.70;99.90
4896;DHT22;2463;49.948;8.472;2023-08-07T00:06:47;14.70;99.90
4896;DHT22;2463;49.948;8.472;2023-08-07T00:09:14;14.70;99.90
4896;DHT22;2463;49.948;8.472;2023-08-07T00:11:41;14.60;99.90
4896;DHT22;2463;49.948;8.472;2023-08-07T00:14:07;14.70;99.90
4896;DHT22;2463;49.948;8.472;2023-08-07T00:16:34;14.70;99.90
4896;DHT22;2463;49.948;8.472;2023-08-07T00:19:02;14.70;99.90
4896;DHT22;2463;49.948;8.472;2023-08-07T00:21:29;14.70;99.90
4896;DHT22;2463;49.948;8.472;2023-08-07T00:23:56;14.70;99.90
4896;DHT22;2463;49.948;8.472;2023-08-07T00:26:22;14.70;99.90
4896;DHT22;2463;49.948;8.472;2023-08-07T00:28:49;14.70;99.90
4896;DHT22;2463;49.948;8.472;2023-08-07T00:31:16;14.60;99.90
4896;DHT22;2463;49.948;8.472;2023-08-07T00:33:43;14.60;99.90
4896;DHT22;2463;49.948;8.472;2023-08-07T00:36:10;14.60;99.90
4896;DHT22;2463;49.948;8.472;2023-08-07T00:38:36;14.70;99.90
4896;DHT22;2463;49.948;8.472;2023-08-07T00:41:03;14.60;99.90
4896;DHT22;2463;49.948;8.472;2023-08-07T00:43:31;14.60;99.90
4896;DHT22;2463;49.948;8.472;2023-08-07T00:45:57;14.60;99.90
4896;DHT22;2463;49.948;8.472;2023-08-07T00:48:24;14.70;99.90
4896;DHT22;2463;49.948;8.472;2023-08-07T00:50:52;14.70;99.90
4896;DHT22;2463;49.948;8.472;2023-08-07T00:53:19;14.70;99.90
4896;DHT22;2463;49.948;8.472;2023-08-07T00:55:46;14.70;99.90
4896;DHT22;2463;49.948;8.472;2023-08-07T00:58:13;14.70;99.90
4896;DHT22;2463;49.948;8.472;2023-08-07T01:00:40;14.70;99.90
4896;DHT22;2463;49.948;8.472;2023-08-07T01:03:11;14.70;99.90
4896;DHT22;2463;49.948;8.472;2023-08-07T01:05:38;14.80;99.90
4896;DHT22;2463;49.948;8.472;2023-08-07T01:08:06;14.80;99.90
4896;DHT22;2463;49.948;8.472;2023-08-07T01:11:09;14.80;99.90
4896;DHT22;2463;49.948;8.472;2023-08-07T01:13:37;14.80;99.90
4896;DHT22;2463;49.948;8.472;2023-08-07T01:16:26;14.70;99.90
4896;DHT22;2463;49.948;8.472;2023-08-07T01:18:53;14.70;99.90
4896;DHT22;2463;49.948;8.472;2023-08-07T01:21:21;14.70;99.90
4896;DHT22;2463;49.948;8.472;2023-08-07T01:23:48;14.70;99.90
4896;DHT22;2463;49.948;8.472;2023-08-07T01:26:17;14.70;99.90
4896;DHT22;2463;49.948;8.472;2023-08-07T01:31:39;14.70;99.90
4896;DHT22;2463;49.948;8.472;2023-08-07T01:34:08;14.70;99.90
4896;DHT22;2463;49.948;8.472;2023-08-07T01:36:38;14.70;99.90
4896;DHT22;2463;49.948;8.472;2023-08-07T01:39:06;14.70;99.90
4896;DHT22;2463;49.948;8.472;2023-08-07T01:41:35;14.70;99.90
4896;DHT22;2463;49.948;8.472;2023-08-07T01:44:02;14.70;99.90
4896;DHT22;2463;49.948;8.472;2023-08-07T01:46:30;14.70;99.90
4896;DHT22;2463;49.948;8.472;2023-08-07T01:48:57;14.70;99.90
4896;DHT22;2463;49.948;8.472;2023-08-07T01:51:24;14.70;99.90
4896;DHT22;2463;49.948;8.472;2023-08-07T01:53:51;14.70;99.90
4896;DHT22;2463;49.948;8.472;2023-08-07T01:56:17;15.70;99.90
4896;DHT22;2463;49.948;8.472;2023-08-07T01:58:44;14.70;99.90
4896;DHT22;2463;49.948;8.472;2023-08-07T02:01:11;14.70;99.90
4896;DHT22;2463;49.948;8.472;2023-08-07T02:03:37;14.80;99.90
4896;DHT22;2463;49.948;8.472;2023-08-07T02:06:04;14.80;99.90
4896;DHT22;2463;49.948;8.472;2023-08-07T02:08:31;14.80;99.90
4896;DHT22;2463;49.948;8.472;2023-08-07T02:10:58;14.70;99.90
4896;DHT22;2463;49.948;8.472;2023-08-07T02:13:27;14.70;99.90
4896;DHT22;2463;49.948;8.472;2023-08-07T02:15:54;14.70;99.90
4896;DHT22;2463;49.948;8.472;2023-08-07T02:18:21;14.70;99.90
4896;DHT22;2463;49.948;8.472;2023-08-07T02:20:48;14.70;99.90
4896;DHT22;2463;49.948;8.472;2023-08-07T02:23:14;14.70;99.90
4896;DHT22;2463;49.948;8.472;2023-08-07T02:25:41;14.70;99.90
4896;DHT22;2463;49.948;8.472;2023-08-07T02:28:08;14.70;99.90
4896;DHT22;2463;49.948;8.472;2023-08-07T02:30:34;14.70;99.90
4896;DHT22;2463;49.948;8.472;2023-08-07T02:33:01;14.70;99.90
4896;DHT22;2463;49.948;8.472;2023-08-07T02:35:28;14.60;99.90
4896;DHT22;2463;49.948;8.472;2023-08-07T02:37:55;14.60;99.90
4896;DHT22;2463;49.948;8.472;2023-08-07T02:40:21;14.60;99.90
4896;DHT22;2463;49.948;8.472;2023-08-07T02:42:48;14.60;99.90
4896;DHT22;2463;49.948;8.472;2023-08-07T02:45:15;14.60;99.90
4896;DHT22;2463;49.948;8.472;2023-08-07T02:47:41;14.60;99.90
4896;DHT22;2463;49.948;8.472;2023-08-07T02:50:08;14.60;99.90
4896;DHT22;2463;49.948;8.472;2023-08-07T02:52:35;14.60;99.90
4896;DHT22;2463;49.948;8.472;2023-08-07T02:55:02;14.60;99.90
4896;DHT22;2463;49.948;8.472;2023-08-07T02:57:29;14.60;99.90
4896;DHT22;2463;49.948;8.472;2023-08-07T02:59:55;14.60;99.90
4896;DHT22;2463;49.948;8.472;2023-08-07T03:02:22;14.70;99.90
4896;DHT22;2463;49.948;8.472;2023-08-07T03:04:49;14.60;99.90
4896;DHT22;2463;49.948;8.472;2023-08-07T03:07:16;14.60;99.90
4896;DHT22;2463;49.948;8.472;2023-08-07T03:09:45;14.60;99.90
4896;DHT22;2463;49.948;8.472;2023-08-07T03:12:13;14.60;99.90
4896;DHT22;2463;49.948;8.472;2023-08-07T03:14:40;14.60;99.90
4896;DHT22;2463;49.948;8.472;2023-08-07T03:17:07;14.60;99.90
4896;DHT22;2463;49.948;8.472;2023-08-07T03:19:33;14.60;99.90
4896;DHT22;2463;49.948;8.472;2023-08-07T03:22:00;14.60;99.90
4896;DHT22;2463;49.948;8.472;2023-08-07T03:24:27;14.60;99.90
4896;DHT22;2463;49.948;8.472;2023-08-07T03:26:54;14.60;99.90
4896;DHT22;2463;49.948;8.472;2023-08-07T03:29:21;14.60;99.90
4896;DHT22;2463;49.948;8.472;2023-08-07T03:31:48;14.60;99.90
4896;DHT22;2463;49.948;8.472;2023-08-07T03:34:14;14.60;99.90
4896;DHT22;2463;49.948;8.472;2023-08-07T03:36:41;14.60;99.90
4896;DHT22;2463;49.948;8.472;2023-08-07T03:39:08;14.50;99.90
4896;DHT22;2463;49.948;8.472;2023-08-07T03:41:36;14.60;99.90
4896;DHT22;2463;49.948;8.472;2023-08-07T03:44:03;14.50;99.90
4896;DHT22;2463;49.948;8.472;2023-08-07T03:46:30;14.60;99.90
4896;DHT22;2463;49.948;8.472;2023-08-07T03:48:57;14.60;99.90
4896;DHT22;2463;49.948;8.472;2023-08-07T03:51:23;14.60;99.90
4896;DHT22;2463;49.948;8.472;2023-08-07T03:53:50;14.60;99.90
4896;DHT22;2463;49.948;8.472;2023-08-07T03:56:17;14.60;99.90
4896;DHT22;2463;49.948;8.472;2023-08-07T03:58:44;14.60;99.90
4896;DHT22;2463;49.948;8.472;2023-08-07T04:01:11;14.60;99.90
4896;DHT22;2463;49.948;8.472;2023-08-07T04:03:38;14.60;99.90
4896;DHT22;2463;49.948;8.472;2023-08-07T04:06:05;14.70;99.90
4896;DHT22;2463;49.948;8.472;2023-08-07T04:08:32;14.70;99.90
4896;DHT22;2463;49.948;8.472;2023-08-07T04:11:03;14.70;99.90
4896;DHT22;2463;49.948;8.472;2023-08-07T04:13:30;14.70;99.90
4896;DHT22;2463;49.948;8.472;2023-08-07T04:15:58;14.70;99.90
4896;DHT22;2463;49.948;8.472;2023-08-07T04:18:25;14.70;99.90
4896;DHT22;2463;49.948;8.472;2023-08-07T04:20:53;14.70;99.90
4896;DHT22;2463;49.948;8.472;2023-08-07T04:23:21;14.70;99.90
4896;DHT22;2463;49.948;8.472;2023-08-07T04:25:48;14.70;99.90
4896;DHT22;2463;49.948;8.472;2023-08-07T04:28:15;14.70;99.90
4896;DHT22;2463;49.948;8.472;2023-08-07T04:30:43;14.70;99.90
4896;DHT22;2463;49.948;8.472;2023-08-07T04:33:10;14.70;99.90
4896;DHT22;2463;49.948;8.472;2023-08-07T04:35:37;14.80;99.90
4896;DHT22;2463;49.948;8.472;2023-08-07T04:38:04;14.70;99.90
4896;DHT22;2463;49.948;8.472;2023-08-07T04:40:30;14.70;99.90
4896;DHT22;2463;49.948;8.472;2023-08-07T04:42:57;14.70;99.90
4896;DHT22;2463;49.948;8.472;2023-08-07T04:45:24;14.80;99.90
4896;DHT22;2463;49.948;8.472;2023-08-07T04:47:51;14.80;99.90
4896;DHT22;2463;49.948;8.472;2023-08-07T04:50:18;14.80;99.90
4896;DHT22;2463;49.948;8.472;2023-08-07T04:52:45;14.80;99.90
4896;DHT22;2463;49.948;8.472;2023-08-07T04:55:11;14.80;99.90
4896;DHT22;2463;49.948;8.472;2023-08-07T04:57:38;14.80;99.90
4896;DHT22;2463;49.948;8.472;2023-08-07T05:00:05;14.70;99.90
4896;DHT22;2463;49.948;8.472;2023-08-07T05:02:32;14.70;99.90
4896;DHT22;2463;49.948;8.472;2023-08-07T05:04:59;14.80;99.90
4896;DHT22;2463;49.948;8.472;2023-08-07T05:07:26;14.80;99.90
4896;DHT22;2463;49.948;8.472;2023-08-07T05:09:53;14.80;99.90
4896;DHT22;2463;49.948;8.472;2023-08-07T05:12:20;14.80;99.90
4896;DHT22;2463;49.948;8.472;2023-08-07T05:14:46;14.80;99.90
4896;DHT22;2463;49.948;8.472;2023-08-07T05:17:13;14.80;99.90
4896;DHT22;2463;49.948;8.472;2023-08-07T05:19:40;14.70;99.90
4896;DHT22;2463;49.948;8.472;2023-08-07T05:22:07;14.80;99.90
4896;DHT22;2463;49.948;8.472;2023-08-07T05:24:33;14.80;99.90
4896;DHT22;2463;49.948;8.472;2023-08-07T05:27:07;14.80;99.90
4896;DHT22;2463;49.948;8.472;2023-08-07T05:29:35;14.80;99.90
4896;DHT22;2463;49.948;8.472;2023-08-07T05:32:10;14.80;99.90
4896;DHT22;2463;49.948;8.472;2023-08-07T05:34:38;14.90;99.90
4896;DHT22;2463;49.948;8.472;2023-08-07T05:37:05;14.90;99.90
4896;DHT22;2463;49.948;8.472;2023-08-07T05:39:32;14.90;99.90
4896;DHT22;2463;49.948;8.472;2023-08-07T05:41:59;14.90;99.90
4896;DHT22;2463;49.948;8.472;2023-08-07T05:44:26;14.90;99.90
4896;DHT22;2463;49.948;8.472;2023-08-07T05:46:53;14.90;99.90
4896;DHT22;2463;49.948;8.472;2023-08-07T05:49:20;15.00;99.90
4896;DHT22;2463;49.948;8.472;2023-08-07T05:51:51;15.00;99.90
4896;DHT22;2463;49.948;8.472;2023-08-07T05:54:18;15.00;99.90
4896;DHT22;2463;49.948;8.472;2023-08-07T05:56:44;15.00;99.90
4896;DHT22;2463;49.948;8.472;2023-08-07T05:59:11;15.10;99.90
4896;DHT22;2463;49.948;8.472;2023-08-07T06:01:38;15.10;99.90
4896;DHT22;2463;49.948;8.472;2023-08-07T06:04:05;15.10;99.90
4896;DHT22;2463;49.948;8.472;2023-08-07T06:06:31;15.20;99.90
4896;DHT22;2463;49.948;8.472;2023-08-07T06:09:01;15.20;99.90
4896;DHT22;2463;49.948;8.472;2023-08-07T06:11:30;15.20;99.90
4896;DHT22;2463;49.948;8.472;2023-08-07T06:13:56;15.20;99.90
4896;DHT22;2463;49.948;8.472;2023-08-07T06:16:23;15.20;99.90
4896;DHT22;2463;49.948;8.472;2023-08-07T06:18:50;15.30;99.90
4896;DHT22;2463;49.948;8.472;2023-08-07T06:21:17;15.30;99.90
4896;DHT22;2463;49.948;8.472;2023-08-07T06:23:43;15.30;99.90
4896;DHT22;2463;49.948;8.472;2023-08-07T06:26:10;15.20;99.90
4896;DHT22;2463;49.948;8.472;2023-08-07T06:28:37;15.20;99.90
4896;DHT22;2463;49.948;8.472;2023-08-07T06:31:06;15.20;99.90
4896;DHT22;2463;49.948;8.472;2023-08-07T06:33:33;15.20;99.90
4896;DHT22;2463;49.948;8.472;2023-08-07T06:36:01;15.10;99.90
4896;DHT22;2463;49.948;8.472;2023-08-07T06:38:28;15.10;99.90
4896;DHT22;2463;49.948;8.472;2023-08-07T06:40:55;15.00;99.90
4896;DHT22;2463;49.948;8.472;2023-08-07T06:43:22;15.00;99.90
4896;DHT22;2463;49.948;8.472;2023-08-07T06:45:55;15.00;99.90
4896;DHT22;2463;49.948;8.472;2023-08-07T06:48:23;15.00;99.90
4896;DHT22;2463;49.948;8.472;2023-08-07T06:50:50;15.00;99.90
4896;DHT22;2463;49.948;8.472;2023-08-07T06:53:17;16.60;99.90
4896;DHT22;2463;49.948;8.472;2023-08-07T06:55:44;15.10;99.90
4896;DHT22;2463;49.948;8.472;2023-08-07T06:58:11;15.10;99.90
4896;DHT22;2463;49.948;8.472;2023-08-07T07:00:38;15.10;99.90
4896;DHT22;2463;49.948;8.472;2023-08-07T07:03:05;15.10;99.90
4896;DHT22;2463;49.948;8.472;2023-08-07T07:05:32;15.10;99.90
4896;DHT22;2463;49.948;8.472;2023-08-07T07:07:59;15.10;99.90
4896;DHT22;2463;49.948;8.472;2023-08-07T07:10:26;15.10;99.90
4896;DHT22;2463;49.948;8.472;2023-08-07T07:12:53;15.10;99.90
4896;DHT22;2463;49.948;8.472;2023-08-07T07:15:20;15.10;99.90
4896;DHT22;2463;49.948;8.472;2023-08-07T07:17:46;15.10;99.90
4896;DHT22;2463;49.948;8.472;2023-08-07T07:20:13;15.20;99.90
4896;DHT22;2463;49.948;8.472;2023-08-07T07:22:40;15.30;99.90
4896;DHT22;2463;49.948;8.472;2023-08-07T07:25:07;15.40;99.90
4896;DHT22;2463;49.948;8.472;2023-08-07T07:27:34;15.40;99.90
4896;DHT22;2463;49.948;8.472;2023-08-07T07:30:01;15.50;99.90
4896;DHT22;2463;49.948;8.472;2023-08-07T07:32:27;15.50;99.90
4896;DHT22;2463;49.948;8.472;2023-08-07T07:34:54;15.50;99.90
4896;DHT22;2463;49.948;8.472;2023-08-07T07:37:21;15.50;99.90
4896;DHT22;2463;49.948;8.472;2023-08-07T07:39:48;15.60;99.90
4896;DHT22;2463;49.948;8.472;2023-08-07T07:42:14;15.60;99.90
4896;DHT22;2463;49.948;8.472;2023-08-07T07:44:41;15.60;99.90
4896;DHT22;2463;49.948;8.472;2023-08-07T07:47:08;15.60;99.90
4896;DHT22;2463;49.948;8.472;2023-08-07T07:49:39;15.70;99.90
4896;DHT22;2463;49.948;8.472;2023-08-07T07:52:06;15.70;99.90
4896;DHT22;2463;49.948;8.472;2023-08-07T07:54:34;15.70;99.90
4896;DHT22;2463;49.948;8.472;2023-08-07T07:57:01;15.70;99.90
4896;DHT22;2463;49.948;8.472;2023-08-07T07:59:28;15.80;99.90
4896;DHT22;2463;49.948;8.472;2023-08-07T08:01:55;15.80;99.90
4896;DHT22;2463;49.948;8.472;2023-08-07T08:04:22;15.80;99.90
4896;DHT22;2463;49.948;8.472;2023-08-07T08:06:49;15.90;99.90
4896;DHT22;2463;49.948;8.472;2023-08-07T08:09:16;15.90;99.90
4896;DHT22;2463;49.948;8.472;2023-08-07T08:11:43;15.90;99.90
4896;DHT22;2463;49.948;8.472;2023-08-07T08:14:10;15.90;99.90
4896;DHT22;2463;49.948;8.472;2023-08-07T08:16:37;15.90;99.90
4896;DHT22;2463;49.948;8.472;2023-08-07T08:19:03;16.00;99.90
4896;DHT22;2463;49.948;8.472;2023-08-07T08:21:30;16.10;99.90
4896;DHT22;2463;49.948;8.472;2023-08-07T08:23:58;16.10;99.90
4896;DHT22;2463;49.948;8.472;2023-08-07T08:26:24;16.10;99.90
4896;DHT22;2463;49.948;8.472;2023-08-07T08:28:51;16.20;99.90
4896;DHT22;2463;49.948;8.472;2023-08-07T08:31:18;16.20;99.90
4896;DHT22;2463;49.948;8.472;2023-08-07T08:33:47;16.20;99.90
4896;DHT22;2463;49.948;8.472;2023-08-07T08:36:13;16.20;99.90
4896;DHT22;2463;49.948;8.472;2023-08-07T08:38:40;16.20;99.90
4896;DHT22;2463;49.948;8.472;2023-08-07T08:41:09;16.20;99.90
4896;DHT22;2463;49.948;8.472;2023-08-07T08:43:38;16.10;99.90
4896;DHT22;2463;49.948;8.472;2023-08-07T08:46:08;16.10;99.90
4896;DHT22;2463;49.948;8.472;2023-08-07T08:48:39;16.10;99.90
4896;DHT22;2463;49.948;8.472;2023-08-07T08:51:08;16.20;99.90
4896;DHT22;2463;49.948;8.472;2023-08-07T08:53:35;16.10;99.90
4896;DHT22;2463;49.948;8.472;2023-08-07T08:56:02;16.10;99.90
4896;DHT22;2463;49.948;8.472;2023-08-07T08:58:29;16.10;99.90
4896;DHT22;2463;49.948;8.472;2023-08-07T09:00:57;16.00;99.90
4896;DHT22;2463;49.948;8.472;2023-08-07T09:03:25;16.10;99.90
4896;DHT22;2463;49.948;8.472;2023-08-07T09:05:53;16.10;99.90
4896;DHT22;2463;49.948;8.472;2023-08-07T09:08:26;16.10;99.90
4896;DHT22;2463;49.948;8.472;2023-08-07T09:10:53;16.10;99.90
4896;DHT22;2463;49.948;8.472;2023-08-07T09:13:23;16.10;99.90
4896;DHT22;2463;49.948;8.472;2023-08-07T09:15:53;16.20;99.90
4896;DHT22;2463;49.948;8.472;2023-08-07T09:18:20;16.20;99.90
4896;DHT22;2463;49.948;8.472;2023-08-07T09:20:49;16.20;99.90
4896;DHT22;2463;49.948;8.472;2023-08-07T09:23:16;16.30;99.90
4896;DHT22;2463;49.948;8.472;2023-08-07T09:25:44;16.30;99.90
4896;DHT22;2463;49.948;8.472;2023-08-07T09:28:11;16.30;99.90
4896;DHT22;2463;49.948;8.472;2023-08-07T09:30:38;16.30;99.90
4896;DHT22;2463;49.948;8.472;2023-08-07T09:33:05;16.30;99.90
4896;DHT22;2463;49.948;8.472;2023-08-07T09:35:33;16.20;99.90
4896;DHT22;2463;49.948;8.472;2023-08-07T09:38:01;16.20;99.90
4896;DHT22;2463;49.948;8.472;2023-08-07T09:40:29;16.20;99.90
4896;DHT22;2463;49.948;8.472;2023-08-07T09:42:56;16.20;99.90
4896;DHT22;2463;49.948;8.472;2023-08-07T09:45:25;16.10;99.90
4896;DHT22;2463;49.948;8.472;2023-08-07T09:48:03;16.00;99.90
4896;DHT22;2463;49.948;8.472;2023-08-07T09:50:31;16.00;99.90
4896;DHT22;2463;49.948;8.472;2023-08-07T09:52:58;16.00;99.90
4896;DHT22;2463;49.948;8.472;2023-08-07T09:55:26;15.90;99.90
4896;DHT22;2463;49.948;8.472;2023-08-07T09:57:53;15.90;99.90
4896;DHT22;2463;49.948;8.472;2023-08-07T10:00:20;15.90;99.90
4896;DHT22;2463;49.948;8.472;2023-08-07T10:02:49;15.90;99.90
4896;DHT22;2463;49.948;8.472;2023-08-07T10:05:17;15.90;99.90
4896;DHT22;2463;49.948;8.472;2023-08-07T10:07:44;16.00;99.90
4896;DHT22;2463;49.948;8.472;2023-08-07T10:10:11;16.10;99.90
4896;DHT22;2463;49.948;8.472;2023-08-07T10:12:38;16.10;99.90
4896;DHT22;2463;49.948;8.472;2023-08-07T10:15:05;16.10;99.90
4896;DHT22;2463;49.948;8.472;2023-08-07T10:17:33;16.10;99.90
4896;DHT22;2463;49.948;8.472;2023-08-07T10:20:00;16.20;99.90
4896;DHT22;2463;49.948;8.472;2023-08-07T10:22:29;16.30;99.90
4896;DHT22;2463;49.948;8.472;2023-08-07T10:24:58;16.40;99.90
4896;DHT22;2463;49.948;8.472;2023-08-07T10:27:26;16.40;99.90
4896;DHT22;2463;49.948;8.472;2023-08-07T10:29:54;16.50;99.90
4896;DHT22;2463;49.948;8.472;2023-08-07T10:32:25;16.50;99.90
4896;DHT22;2463;49.948;8.472;2023-08-07T10:34:53;16.60;99.90
4896;DHT22;2463;49.948;8.472;2023-08-07T10:37:37;16.60;99.90
4896;DHT22;2463;49.948;8.472;2023-08-07T10:40:05;16.70;99.90
4896;DHT22;2463;49.948;8.472;2023-08-07T10:42:56;16.70;99.90
4896;DHT22;2463;49.948;8.472;2023-08-07T10:45:25;16.80;99.90
4896;DHT22;2463;49.948;8.472;2023-08-07T10:50:32;17.00;99.90
4896;DHT22;2463;49.948;8.472;2023-08-07T10:53:03;17.00;99.90
4896;DHT22;2463;49.948;8.472;2023-08-07T10:55:46;17.10;99.90
4896;DHT22;2463;49.948;8.472;2023-08-07T10:58:35;17.20;99.90
4896;DHT22;2463;49.948;8.472;2023-08-07T11:03:58;17.20;99.90
4896;DHT22;2463;49.948;8.472;2023-08-07T11:06:30;17.20;99.90
4896;DHT22;2463;49.948;8.472;2023-08-07T11:09:02;17.20;99.90
4896;DHT22;2463;49.948;8.472;2023-08-07T11:11:41;17.30;99.90
4896;DHT22;2463;49.948;8.472;2023-08-07T11:14:13;17.20;99.90
4896;DHT22;2463;49.948;8.472;2023-08-07T11:16:41;17.20;99.90
4896;DHT22;2463;49.948;8.472;2023-08-07T11:19:08;17.30;99.90
4896;DHT22;2463;49.948;8.472;2023-08-07T11:21:36;17.30;99.90
4896;DHT22;2463;49.948;8.472;2023-08-07T11:24:03;17.40;99.90
4896;DHT22;2463;49.948;8.472;2023-08-07T11:26:30;17.50;99.90
4896;DHT22;2463;49.948;8.472;2023-08-07T11:28:57;17.60;99.90
4896;DHT22;2463;49.948;8.472;2023-08-07T11:31:25;17.70;99.90
4896;DHT22;2463;49.948;8.472;2023-08-07T11:33:54;17.90;99.90
4896;DHT22;2463;49.948;8.472;2023-08-07T11:36:21;18.10;99.90
4896;DHT22;2463;49.948;8.472;2023-08-07T11:38:48;18.30;99.90
4896;DHT22;2463;49.948;8.472;2023-08-07T11:41:16;18.40;99.90
4896;DHT22;2463;49.948;8.472;2023-08-07T11:43:44;18.50;99.90
4896;DHT22;2463;49.948;8.472;2023-08-07T11:46:14;18.60;99.90
4896;DHT22;2463;49.948;8.472;2023-08-07T11:48:42;18.50;99.90
4896;DHT22;2463;49.948;8.472;2023-08-07T11:51:09;18.50;99.90
4896;DHT22;2463;49.948;8.472;2023-08-07T11:53:38;18.40;99.90
4896;DHT22;2463;49.948;8.472;2023-08-07T11:56:12;18.30;99.90
4896;DHT22;2463;49.948;8.472;2023-08-07T11:58:43;18.30;99.90
4896;DHT22;2463;49.948;8.472;2023-08-07T12:01:16;18.30;99.90
4896;DHT22;2463;49.948;8.472;2023-08-07T12:06:32;18.30;99.90
4896;DHT22;2463;49.948;8.472;2023-08-07T12:09:00;18.40;99.90
4896;DHT22;2463;49.948;8.472;2023-08-07T12:11:29;18.40;99.90
4896;DHT22;2463;49.948;8.472;2023-08-07T12:13:56;18.50;99.90
4896;DHT22;2463;49.948;8.472;2023-08-07T12:16:26;18.40;99.90
4896;DHT22;2463;49.948;8.472;2023-08-07T12:18:53;18.50;99.90
4896;DHT22;2463;49.948;8.472;2023-08-07T12:21:23;18.40;99.90
4896;DHT22;2463;49.948;8.472;2023-08-07T12:23:55;18.50;99.90
4896;DHT22;2463;49.948;8.472;2023-08-07T12:26:23;18.60;99.90
4896;DHT22;2463;49.948;8.472;2023-08-07T12:28:49;18.80;99.90
4896;DHT22;2463;49.948;8.472;2023-08-07T12:31:17;19.00;99.90
4896;DHT22;2463;49.948;8.472;2023-08-07T12:33:44;19.20;99.90
4896;DHT22;2463;49.948;8.472;2023-08-07T12:36:11;19.30;99.90
4896;DHT22;2463;49.948;8.472;2023-08-07T12:38:42;19.50;99.90
4896;DHT22;2463;49.948;8.472;2023-08-07T12:41:09;19.60;99.90
4896;DHT22;2463;49.948;8.472;2023-08-07T12:43:56;19.70;99.90
4896;DHT22;2463;49.948;8.472;2023-08-07T12:46:23;19.80;99.90
4896;DHT22;2463;49.948;8.472;2023-08-07T12:48:52;19.90;99.90
4896;DHT22;2463;49.948;8.472;2023-08-07T12:51:19;19.80;99.90
4896;DHT22;2463;49.948;8.472;2023-08-07T12:53:46;19.80;99.90
4896;DHT22;2463;49.948;8.472;2023-08-07T12:56:14;19.70;99.90
4896;DHT22;2463;49.948;8.472;2023-08-07T12:58:40;19.50;99.90
4896;DHT22;2463;49.948;8.472;2023-08-07T13:01:09;19.40;99.90
4896;DHT22;2463;49.948;8.472;2023-08-07T13:03:36;19.40;99.90
4896;DHT22;2463;49.948;8.472;2023-08-07T13:06:03;19.50;99.90
4896;DHT22;2463;49.948;8.472;2023-08-07T13:08:32;19.50;99.90
4896;DHT22;2463;49.948;8.472;2023-08-07T13:11:03;19.60;99.90
4896;DHT22;2463;49.948;8.472;2023-08-07T13:13:29;19.60;99.90
4896;DHT22;2463;49.948;8.472;2023-08-07T13:15:57;19.70;99.90
4896;DHT22;2463;49.948;8.472;2023-08-07T13:18:24;19.90;99.90
4896;DHT22;2463;49.948;8.472;2023-08-07T13:20:51;20.20;99.90
4896;DHT22;2463;49.948;8.472;2023-08-07T13:23:17;20.60;99.90
4896;DHT22;2463;49.948;8.472;2023-08-07T13:25:44;20.90;99.90
4896;DHT22;2463;49.948;8.472;2023-08-07T13:28:11;21.20;99.90
4896;DHT22;2463;49.948;8.472;2023-08-07T13:30:37;21.30;99.90
4896;DHT22;2463;49.948;8.472;2023-08-07T13:33:04;21.40;99.90
4896;DHT22;2463;49.948;8.472;2023-08-07T13:35:31;21.50;99.90
4896;DHT22;2463;49.948;8.472;2023-08-07T13:38:00;21.50;99.90
4896;DHT22;2463;49.948;8.472;2023-08-07T13:40:26;21.40;99.90
4896;DHT22;2463;49.948;8.472;2023-08-07T13:42:53;21.40;99.90
4896;DHT22;2463;49.948;8.472;2023-08-07T13:45:20;21.50;99.90
4896;DHT22;2463;49.948;8.472;2023-08-07T13:47:47;21.50;99.90
4896;DHT22;2463;49.948;8.472;2023-08-07T13:50:14;21.70;99.90
4896;DHT22;2463;49.948;8.472;2023-08-07T13:52:41;21.50;99.90
4896;DHT22;2463;49.948;8.472;2023-08-07T13:55:08;21.60;99.90
4896;DHT22;2463;49.948;8.472;2023-08-07T13:57:36;21.70;99.90
4896;DHT22;2463;49.948;8.472;2023-08-07T14:00:03;21.90;99.90
4896;DHT22;2463;49.948;8.472;2023-08-07T14:02:30;22.10;99.90
4896;DHT22;2463;49.948;8.472;2023-08-07T14:04:58;22.40;99.90
4896;DHT22;2463;49.948;8.472;2023-08-07T14:07:25;22.60;99.90
4896;DHT22;2463;49.948;8.472;2023-08-07T14:09:51;22.90;99.90
4896;DHT22;2463;49.948;8.472;2023-08-07T14:12:18;23.10;99.90
4896;DHT22;2463;49.948;8.472;2023-08-07T14:14:45;23.40;99.90
4896;DHT22;2463;49.948;8.472;2023-08-07T14:17:12;23.60;99.90
4896;DHT22;2463;49.948;8.472;2023-08-07T14:19:38;23.60;99.90
4896;DHT22;2463;49.948;8.472;2023-08-07T14:22:05;23.60;99.90
4896;DHT22;2463;49.948;8.472;2023-08-07T14:24:32;23.60;99.90
4896;DHT22;2463;49.948;8.472;2023-08-07T14:26:58;23.70;99.90
4896;DHT22;2463;49.948;8.472;2023-08-07T14:29:25;23.60;99.90
4896;DHT22;2463;49.948;8.472;2023-08-07T14:31:52;23.60;99.90
4896;DHT22;2463;49.948;8.472;2023-08-07T14:34:19;23.70;99.90
4896;DHT22;2463;49.948;8.472;2023-08-07T14:36:45;23.80;99.90
4896;DHT22;2463;49.948;8.472;2023-08-07T14:39:12;24.00;99.90
4896;DHT22;2463;49.948;8.472;2023-08-07T14:41:39;24.00;99.90
4896;DHT22;2463;49.948;8.472;2023-08-07T14:44:05;24.10;99.90
4896;DHT22;2463;49.948;8.472;2023-08-07T14:46:32;24.30;99.90
4896;DHT22;2463;49.948;8.472;2023-08-07T14:48:59;24.30;99.90
4896;DHT22;2463;49.948;8.472;2023-08-07T14:51:26;24.50;99.90
4896;DHT22;2463;49.948;8.472;2023-08-07T14:53:53;24.50;99.90
4896;DHT22;2463;49.948;8.472;2023-08-07T14:56:19;24.60;99.90
4896;DHT22;2463;49.948;8.472;2023-08-07T14:58:46;24.60;99.90
4896;DHT22;2463;49.948;8.472;2023-08-07T15:01:13;24.40;99.90
4896;DHT22;2463;49.948;8.472;2023-08-07T15:03:39;24.20;99.60
4896;DHT22;2463;49.948;8.472;2023-08-07T15:06:06;23.90;99.20
4896;DHT22;2463;49.948;8.472;2023-08-07T15:08:33;23.60;99.10
4896;DHT22;2463;49.948;8.472;2023-08-07T15:11:00;23.50;99.60
4896;DHT22;2463;49.948;8.472;2023-08-07T15:13:26;23.50;99.90
4896;DHT22;2463;49.948;8.472;2023-08-07T15:15:53;22.50;99.00
4896;DHT22;2463;49.948;8.472;2023-08-07T15:18:20;23.60;99.40
4896;DHT22;2463;49.948;8.472;2023-08-07T15:20:47;23.40;99.10
4896;DHT22;2463;49.948;8.472;2023-08-07T15:23:15;23.30;98.10
4896;DHT22;2463;49.948;8.472;2023-08-07T15:25:42;23.00;99.40
4896;DHT22;2463;49.948;8.472;2023-08-07T15:28:10;22.80;99.10
4896;DHT22;2463;49.948;8.472;2023-08-07T15:30:36;22.70;99.90
4896;DHT22;2463;49.948;8.472;2023-08-07T15:33:03;22.70;99.90
4896;DHT22;2463;49.948;8.472;2023-08-07T15:35:30;22.90;99.90
4896;DHT22;2463;49.948;8.472;2023-08-07T15:37:58;23.10;99.90
4896;DHT22;2463;49.948;8.472;2023-08-07T15:40:27;23.30;99.90
4896;DHT22;2463;49.948;8.472;2023-08-07T15:42:54;23.50;99.50
4896;DHT22;2463;49.948;8.472;2023-08-07T15:45:21;23.60;99.90
4896;DHT22;2463;49.948;8.472;2023-08-07T15:47:47;23.60;99.90
4896;DHT22;2463;49.948;8.472;2023-08-07T15:50:14;23.70;99.90
4896;DHT22;2463;49.948;8.472;2023-08-07T15:52:41;23.70;99.90
4896;DHT22;2463;49.948;8.472;2023-08-07T15:55:08;23.70;99.60
4896;DHT22;2463;49.948;8.472;2023-08-07T15:57:35;23.70;98.70
4896;DHT22;2463;49.948;8.472;2023-08-07T16:00:02;23.60;97.50
4896;DHT22;2463;49.948;8.472;2023-08-07T16:02:29;23.40;98.60
4896;DHT22;2463;49.948;8.472;2023-08-07T16:04:56;23.40;98.30
4896;DHT22;2463;49.948;8.472;2023-08-07T16:07:23;23.30;98.20
4896;DHT22;2463;49.948;8.472;2023-08-07T16:09:49;23.20;96.80
4896;DHT22;2463;49.948;8.472;2023-08-07T16:12:16;23.20;98.30
4896;DHT22;2463;49.948;8.472;2023-08-07T16:14:44;23.30;97.50
4896;DHT22;2463;49.948;8.472;2023-08-07T16:17:10;23.00;96.30